Terminal Aerodrome Forecast
Issued by NWS

Home | Current Version | Previous Version | Text Only | Print | Product List | Glossary On
Versions: 1 2 3 4 5 6 7 8 9 10 11 12 13 14 15 16 17 18 19 20 21 22 23 24 25 26 27 28 29
000
FTUS46 KMTR 241739
TAFSFO
TAF
KSFO 241739Z 2418/2524 30009KT P6SM FEW015
     FM242200 29015G23KT P6SM FEW012
     FM250400 29013KT P6SM BKN012
     FM251000 28008KT P6SM FEW008 OVC012
     FM251630 31009KT P6SM SCT012
     FM252100 30014KT P6SM FEW012=

USA.gov is the U.S. government's official web portal to all federal, state and local government web resources and services.